logo
Search for airport 
image banner adimage banner adimage banner ad
image banner ad

ED2109 - Limbach

Located in Limbach, Germany

ICAO - , IATA -

Data provided by Airmate  

General information

Coordinates: N50°41'45" E7°47'55"
Elevation is 1036 feet MSL.
 
View others Airports in Rhineland-Palatinate

Operational data

Special qualification required
Current time UTC:
Current local time:
Weather at : EDGS - Siegerland ( 20 km )
METAR: EDGS 241150Z 30010KT 260V330 9999 FEW019 16/12 Q1021
View NOTAMs / SUP AIP / TFR affecting this airport [VIEW]
Communications frequencies: [VIEW]

Runways:

Airport contact information

Address: Limbach Germany

Satellite view of ED2109